createdAt,value
2022-08-26T19:31:02.102Z,9.63
2022-08-26T19:33:29.297Z,8.15
2022-08-26T19:35:56.254Z,8.43
2022-08-26T19:38:22.823Z,8.45
2022-08-26T19:40:49.337Z,9.80
2022-08-26T19:43:15.869Z,9.48
2022-08-26T19:45:43.546Z,10.20
2022-08-26T19:48:10.263Z,7.82
2022-08-26T19:50:36.826Z,9.45
2022-08-26T19:53:03.548Z,8.23
2022-08-26T19:55:30.783Z,11.85
2022-08-26T19:57:57.360Z,10.95
2022-08-26T20:00:26.569Z,9.07
2022-08-26T20:02:53.688Z,8.23
2022-08-26T20:05:22.907Z,9.07
2022-08-26T20:07:50.010Z,8.45
2022-08-26T20:10:18.874Z,9.10
2022-08-26T20:12:45.381Z,12.82
2022-08-26T20:15:13.028Z,9.20
2022-08-26T20:17:40.452Z,11.05
2022-08-26T20:20:13.296Z,10.40
2022-08-26T20:22:56.671Z,12.05
2022-08-26T20:25:23.549Z,11.00
2022-08-26T20:27:50.069Z,11.57
2022-08-26T20:30:16.579Z,9.25
2022-08-26T20:32:43.382Z,13.30
2022-08-26T20:35:12.558Z,14.63
2022-08-26T20:37:39.923Z,9.95
2022-08-26T20:40:07.981Z,10.32
2022-08-26T20:42:34.906Z,13.68
2022-08-26T20:45:02.041Z,17.15
2022-08-26T20:47:28.619Z,16.65
2022-08-26T20:49:55.788Z,15.27
2022-08-26T20:52:22.518Z,20.33
2022-08-26T20:54:49.019Z,14.38
2022-08-26T20:57:15.645Z,13.52
2022-08-26T20:59:42.150Z,17.25
2022-08-26T21:02:08.788Z,12.95
2022-08-26T21:04:35.451Z,14.45
2022-08-26T21:07:02.038Z,16.02
2022-08-26T21:09:28.575Z,15.18
2022-08-26T21:11:56.786Z,15.48
2022-08-26T21:14:25.867Z,15.85
2022-08-26T21:16:58.783Z,13.90
2022-08-26T21:19:25.851Z,16.55
2022-08-26T21:21:56.084Z,12.00
2022-08-26T21:24:32.455Z,11.95
2022-08-26T21:27:02.292Z,14.88
2022-08-26T21:29:29.198Z,14.35
2022-08-26T21:31:59.601Z,13.55
2022-08-26T21:34:26.700Z,15.68
2022-08-26T21:36:54.951Z,11.52
2022-08-26T21:39:21.774Z,12.45
2022-08-26T21:41:48.395Z,11.20
2022-08-26T21:44:16.895Z,10.60
2022-08-26T21:46:45.011Z,13.82
2022-08-26T21:49:14.009Z,10.93
2022-08-26T21:51:45.358Z,12.40
2022-08-26T21:54:13.255Z,10.52
2022-08-26T21:56:45.234Z,14.30
2022-08-26T21:59:12.841Z,11.40
2022-08-26T22:01:39.429Z,12.73
2022-08-26T22:04:08.020Z,11.40
2022-08-26T22:06:41.671Z,9.77
2022-08-26T22:09:08.234Z,13.93
2022-08-26T22:11:34.792Z,10.98
2022-08-26T22:14:01.348Z,10.77
2022-08-26T22:16:28.041Z,10.55
2022-08-26T22:18:54.670Z,9.65
2022-08-26T22:21:25.044Z,9.88
2022-08-26T22:23:51.852Z,7.57
2022-08-26T22:28:58.601Z,7.97
2022-08-26T22:31:37.245Z,12.18
2022-08-26T22:34:10.559Z,13.90
2022-08-26T22:36:43.192Z,10.23
2022-08-26T22:39:12.712Z,7.55
2022-08-26T22:41:39.306Z,7.85
2022-08-26T22:44:06.083Z,8.10
2022-08-26T22:46:32.618Z,12.30
2022-08-26T22:48:59.176Z,7.15
2022-08-26T22:51:25.752Z,9.27
2022-08-26T22:53:52.296Z,10.63
2022-08-26T22:56:18.861Z,6.05
2022-08-26T22:58:45.425Z,8.75
2022-08-26T23:01:12.002Z,7.72
2022-08-26T23:03:38.658Z,8.90
2022-08-26T23:06:07.208Z,7.30
2022-08-26T23:08:33.721Z,7.50
2022-08-26T23:11:00.250Z,7.72
2022-08-26T23:13:26.990Z,7.00
2022-08-26T23:16:04.924Z,11.77
2022-08-26T23:18:32.118Z,7.32
2022-08-26T23:20:58.614Z,10.07
2022-08-26T23:23:25.607Z,7.78
2022-08-26T23:25:52.085Z,9.02
2022-08-26T23:28:18.713Z,9.88
2022-08-26T23:30:47.060Z,10.68
2022-08-26T23:33:14.073Z,10.05
2022-08-26T23:35:40.627Z,7.13
2022-08-26T23:38:08.077Z,9.05
2022-08-26T23:40:38.006Z,10.27
2022-08-26T23:43:07.804Z,9.30
2022-08-26T23:45:35.464Z,10.90
2022-08-26T23:48:02.374Z,7.07
2022-08-26T23:50:30.539Z,8.05
2022-08-26T23:52:57.025Z,9.27
2022-08-26T23:55:23.559Z,8.32
2022-08-26T23:57:50.276Z,6.07
